sensor_id;sensor_type;location;lat;lon;timestamp;P1;durP1;ratioP1;P2;durP2;ratioP2
39890;SDS011;25564;53.312;9.790;2023-10-08T00:01:55;6.10;;;2.20;;
39890;SDS011;25564;53.312;9.790;2023-10-08T00:04:27;12.00;;;2.00;;
39890;SDS011;25564;53.312;9.790;2023-10-08T00:06:58;6.87;;;2.00;;
39890;SDS011;25564;53.312;9.790;2023-10-08T00:09:29;9.57;;;2.27;;
39890;SDS011;25564;53.312;9.790;2023-10-08T00:12:06;8.10;;;1.97;;
39890;SDS011;25564;53.312;9.790;2023-10-08T00:14:40;9.77;;;2.90;;
39890;SDS011;25564;53.312;9.790;2023-10-08T00:17:16;7.93;;;1.98;;
39890;SDS011;25564;53.312;9.790;2023-10-08T00:19:51;11.75;;;2.95;;
39890;SDS011;25564;53.312;9.790;2023-10-08T00:22:24;8.73;;;2.57;;
39890;SDS011;25564;53.312;9.790;2023-10-08T00:24:56;10.30;;;2.93;;
39890;SDS011;25564;53.312;9.790;2023-10-08T00:27:29;10.03;;;2.67;;
39890;SDS011;25564;53.312;9.790;2023-10-08T00:30:10;8.40;;;2.60;;
39890;SDS011;25564;53.312;9.790;2023-10-08T00:32:49;7.37;;;2.07;;
39890;SDS011;25564;53.312;9.790;2023-10-08T00:35:21;7.73;;;2.50;;
39890;SDS011;25564;53.312;9.790;2023-10-08T00:37:52;8.07;;;2.67;;
39890;SDS011;25564;53.312;9.790;2023-10-08T00:40:25;8.33;;;2.23;;
39890;SDS011;25564;53.312;9.790;2023-10-08T00:42:57;7.13;;;2.10;;
39890;SDS011;25564;53.312;9.790;2023-10-08T00:45:28;4.50;;;2.00;;
39890;SDS011;25564;53.312;9.790;2023-10-08T00:48:01;10.00;;;2.20;;
39890;SDS011;25564;53.312;9.790;2023-10-08T00:50:33;7.93;;;2.73;;
39890;SDS011;25564;53.312;9.790;2023-10-08T00:53:14;11.67;;;2.57;;
39890;SDS011;25564;53.312;9.790;2023-10-08T00:55:52;10.80;;;2.60;;
39890;SDS011;25564;53.312;9.790;2023-10-08T00:58:35;12.27;;;3.00;;
39890;SDS011;25564;53.312;9.790;2023-10-08T01:01:08;6.50;;;2.07;;
39890;SDS011;25564;53.312;9.790;2023-10-08T01:03:42;12.90;;;3.60;;
39890;SDS011;25564;53.312;9.790;2023-10-08T01:06:16;8.13;;;2.30;;
39890;SDS011;25564;53.312;9.790;2023-10-08T01:08:52;7.50;;;2.65;;
39890;SDS011;25564;53.312;9.790;2023-10-08T01:11:25;8.00;;;2.53;;
39890;SDS011;25564;53.312;9.790;2023-10-08T01:14:10;7.20;;;2.47;;
39890;SDS011;25564;53.312;9.790;2023-10-08T01:16:42;6.37;;;2.20;;
39890;SDS011;25564;53.312;9.790;2023-10-08T01:19:18;7.80;;;2.70;;
39890;SDS011;25564;53.312;9.790;2023-10-08T01:21:51;10.90;;;2.67;;
39890;SDS011;25564;53.312;9.790;2023-10-08T01:24:23;9.30;;;3.43;;
39890;SDS011;25564;53.312;9.790;2023-10-08T01:26:55;11.03;;;2.50;;
39890;SDS011;25564;53.312;9.790;2023-10-08T01:29:27;8.97;;;3.03;;
39890;SDS011;25564;53.312;9.790;2023-10-08T01:31:59;13.13;;;3.57;;
39890;SDS011;25564;53.312;9.790;2023-10-08T01:34:33;11.90;;;3.07;;
39890;SDS011;25564;53.312;9.790;2023-10-08T01:37:07;9.87;;;2.53;;
39890;SDS011;25564;53.312;9.790;2023-10-08T01:42:16;6.60;;;2.30;;
39890;SDS011;25564;53.312;9.790;2023-10-08T01:44:52;9.00;;;2.72;;
39890;SDS011;25564;53.312;9.790;2023-10-08T01:47:25;13.37;;;3.33;;
39890;SDS011;25564;53.312;9.790;2023-10-08T01:49:57;12.80;;;3.03;;
39890;SDS011;25564;53.312;9.790;2023-10-08T01:52:36;13.37;;;3.23;;
39890;SDS011;25564;53.312;9.790;2023-10-08T01:55:08;14.10;;;2.67;;
39890;SDS011;25564;53.312;9.790;2023-10-08T01:57:45;9.67;;;2.50;;
39890;SDS011;25564;53.312;9.790;2023-10-08T02:00:17;19.87;;;2.93;;
39890;SDS011;25564;53.312;9.790;2023-10-08T02:02:51;12.83;;;2.73;;
39890;SDS011;25564;53.312;9.790;2023-10-08T02:05:25;7.27;;;2.63;;
39890;SDS011;25564;53.312;9.790;2023-10-08T02:07:57;7.10;;;2.30;;
39890;SDS011;25564;53.312;9.790;2023-10-08T02:10:29;7.37;;;2.67;;
39890;SDS011;25564;53.312;9.790;2023-10-08T02:13:01;7.37;;;2.50;;
39890;SDS011;25564;53.312;9.790;2023-10-08T02:15:32;8.67;;;2.67;;
39890;SDS011;25564;53.312;9.790;2023-10-08T02:18:04;10.50;;;2.50;;
39890;SDS011;25564;53.312;9.790;2023-10-08T02:20:36;5.50;;;2.63;;
39890;SDS011;25564;53.312;9.790;2023-10-08T02:23:07;5.87;;;1.93;;
39890;SDS011;25564;53.312;9.790;2023-10-08T02:25:39;6.60;;;2.10;;
39890;SDS011;25564;53.312;9.790;2023-10-08T02:28:11;8.93;;;2.17;;
39890;SDS011;25564;53.312;9.790;2023-10-08T02:30:46;7.72;;;2.60;;
39890;SDS011;25564;53.312;9.790;2023-10-08T02:33:18;9.70;;;2.70;;
39890;SDS011;25564;53.312;9.790;2023-10-08T02:35:51;8.07;;;2.17;;
39890;SDS011;25564;53.312;9.790;2023-10-08T02:38:24;7.53;;;1.77;;
39890;SDS011;25564;53.312;9.790;2023-10-08T02:40:56;6.60;;;1.87;;
39890;SDS011;25564;53.312;9.790;2023-10-08T02:43:28;6.80;;;2.07;;
39890;SDS011;25564;53.312;9.790;2023-10-08T02:46:01;8.23;;;2.00;;
39890;SDS011;25564;53.312;9.790;2023-10-08T02:48:36;8.53;;;2.40;;
39890;SDS011;25564;53.312;9.790;2023-10-08T02:51:07;8.67;;;2.90;;
39890;SDS011;25564;53.312;9.790;2023-10-08T02:53:44;8.53;;;2.00;;
39890;SDS011;25564;53.312;9.790;2023-10-08T02:56:18;7.43;;;2.13;;
39890;SDS011;25564;53.312;9.790;2023-10-08T02:58:49;8.80;;;2.57;;
39890;SDS011;25564;53.312;9.790;2023-10-08T03:01:21;5.67;;;2.23;;
39890;SDS011;25564;53.312;9.790;2023-10-08T03:03:52;7.70;;;2.23;;
39890;SDS011;25564;53.312;9.790;2023-10-08T03:06:35;9.27;;;2.03;;
39890;SDS011;25564;53.312;9.790;2023-10-08T03:09:09;8.87;;;2.27;;
39890;SDS011;25564;53.312;9.790;2023-10-08T03:11:41;8.53;;;2.67;;
39890;SDS011;25564;53.312;9.790;2023-10-08T03:14:18;7.60;;;2.03;;
39890;SDS011;25564;53.312;9.790;2023-10-08T03:16:54;5.50;;;2.05;;
39890;SDS011;25564;53.312;9.790;2023-10-08T03:19:38;12.70;;;2.30;;
39890;SDS011;25564;53.312;9.790;2023-10-08T03:22:09;8.63;;;2.20;;
39890;SDS011;25564;53.312;9.790;2023-10-08T03:24:43;8.33;;;1.87;;
39890;SDS011;25564;53.312;9.790;2023-10-08T03:27:14;6.13;;;2.30;;
39890;SDS011;25564;53.312;9.790;2023-10-08T03:29:52;7.43;;;2.03;;
39890;SDS011;25564;53.312;9.790;2023-10-08T03:32:26;8.07;;;2.10;;
39890;SDS011;25564;53.312;9.790;2023-10-08T03:34:58;8.20;;;2.27;;
39890;SDS011;25564;53.312;9.790;2023-10-08T03:37:30;4.87;;;1.73;;
39890;SDS011;25564;53.312;9.790;2023-10-08T03:40:11;6.97;;;2.13;;
39890;SDS011;25564;53.312;9.790;2023-10-08T03:43:13;5.67;;;1.93;;
39890;SDS011;25564;53.312;9.790;2023-10-08T03:46:05;6.17;;;2.10;;
39890;SDS011;25564;53.312;9.790;2023-10-08T03:48:36;7.67;;;2.20;;
39890;SDS011;25564;53.312;9.790;2023-10-08T03:51:10;10.67;;;2.60;;
39890;SDS011;25564;53.312;9.790;2023-10-08T03:53:43;7.60;;;1.80;;
39890;SDS011;25564;53.312;9.790;2023-10-08T03:56:41;7.73;;;1.87;;
39890;SDS011;25564;53.312;9.790;2023-10-08T03:59:16;5.45;;;2.22;;
39890;SDS011;25564;53.312;9.790;2023-10-08T04:02:02;5.70;;;1.50;;
39890;SDS011;25564;53.312;9.790;2023-10-08T04:04:54;9.67;;;1.93;;
39890;SDS011;25564;53.312;9.790;2023-10-08T04:07:28;8.70;;;1.83;;
39890;SDS011;25564;53.312;9.790;2023-10-08T04:10:10;5.43;;;1.73;;
39890;SDS011;25564;53.312;9.790;2023-10-08T04:12:42;5.87;;;2.13;;
39890;SDS011;25564;53.312;9.790;2023-10-08T04:15:21;8.67;;;1.90;;
39890;SDS011;25564;53.312;9.790;2023-10-08T04:17:53;6.10;;;1.80;;
39890;SDS011;25564;53.312;9.790;2023-10-08T04:20:24;6.63;;;1.73;;
39890;SDS011;25564;53.312;9.790;2023-10-08T04:23:09;5.17;;;1.70;;
39890;SDS011;25564;53.312;9.790;2023-10-08T04:25:52;6.23;;;2.03;;
39890;SDS011;25564;53.312;9.790;2023-10-08T04:28:26;5.20;;;1.53;;
39890;SDS011;25564;53.312;9.790;2023-10-08T04:31:05;7.07;;;1.70;;
39890;SDS011;25564;53.312;9.790;2023-10-08T04:33:46;6.43;;;1.70;;
39890;SDS011;25564;53.312;9.790;2023-10-08T04:36:18;5.43;;;1.60;;
39890;SDS011;25564;53.312;9.790;2023-10-08T04:38:51;6.10;;;2.00;;
39890;SDS011;25564;53.312;9.790;2023-10-08T04:41:26;6.10;;;1.70;;
39890;SDS011;25564;53.312;9.790;2023-10-08T04:43:59;6.60;;;2.17;;
39890;SDS011;25564;53.312;9.790;2023-10-08T04:46:38;9.83;;;2.17;;
39890;SDS011;25564;53.312;9.790;2023-10-08T04:49:10;3.90;;;1.63;;
39890;SDS011;25564;53.312;9.790;2023-10-08T04:51:48;4.47;;;1.90;;
39890;SDS011;25564;53.312;9.790;2023-10-08T04:54:20;3.10;;;1.60;;
39890;SDS011;25564;53.312;9.790;2023-10-08T04:56:53;4.20;;;1.87;;
39890;SDS011;25564;53.312;9.790;2023-10-08T04:59:25;4.77;;;1.90;;
39890;SDS011;25564;53.312;9.790;2023-10-08T05:02:04;5.60;;;1.90;;
39890;SDS011;25564;53.312;9.790;2023-10-08T05:04:52;12.03;;;3.27;;
39890;SDS011;25564;53.312;9.790;2023-10-08T05:07:23;6.00;;;2.07;;
39890;SDS011;25564;53.312;9.790;2023-10-08T05:10:12;7.20;;;2.77;;
39890;SDS011;25564;53.312;9.790;2023-10-08T05:12:51;7.80;;;5.13;;
39890;SDS011;25564;53.312;9.790;2023-10-08T05:15:36;7.20;;;2.13;;
39890;SDS011;25564;53.312;9.790;2023-10-08T05:18:12;6.97;;;2.40;;
39890;SDS011;25564;53.312;9.790;2023-10-08T05:20:51;8.73;;;4.90;;
39890;SDS011;25564;53.312;9.790;2023-10-08T05:23:22;3.50;;;1.70;;
39890;SDS011;25564;53.312;9.790;2023-10-08T05:26:00;4.13;;;1.63;;
39890;SDS011;25564;53.312;9.790;2023-10-08T05:28:38;3.07;;;1.70;;
39890;SDS011;25564;53.312;9.790;2023-10-08T05:31:29;3.43;;;1.23;;
39890;SDS011;25564;53.312;9.790;2023-10-08T05:34:13;5.73;;;2.00;;
39890;SDS011;25564;53.312;9.790;2023-10-08T05:37:03;3.37;;;1.90;;
39890;SDS011;25564;53.312;9.790;2023-10-08T05:39:35;3.93;;;1.90;;
39890;SDS011;25564;53.312;9.790;2023-10-08T05:42:25;5.63;;;1.50;;
39890;SDS011;25564;53.312;9.790;2023-10-08T05:44:59;3.97;;;1.27;;
39890;SDS011;25564;53.312;9.790;2023-10-08T05:47:39;3.87;;;1.70;;
39890;SDS011;25564;53.312;9.790;2023-10-08T05:50:22;5.53;;;1.30;;
39890;SDS011;25564;53.312;9.790;2023-10-08T05:52:54;3.10;;;1.40;;
39890;SDS011;25564;53.312;9.790;2023-10-08T05:55:28;9.27;;;1.80;;
39890;SDS011;25564;53.312;9.790;2023-10-08T05:58:05;8.73;;;1.67;;
39890;SDS011;25564;53.312;9.790;2023-10-08T06:00:50;6.43;;;1.67;;
39890;SDS011;25564;53.312;9.790;2023-10-08T06:03:22;4.00;;;1.27;;
39890;SDS011;25564;53.312;9.790;2023-10-08T06:06:08;5.20;;;1.30;;
39890;SDS011;25564;53.312;9.790;2023-10-08T06:08:44;8.90;;;2.10;;
39890;SDS011;25564;53.312;9.790;2023-10-08T06:11:35;5.67;;;1.63;;
39890;SDS011;25564;53.312;9.790;2023-10-08T06:14:27;4.43;;;1.63;;
39890;SDS011;25564;53.312;9.790;2023-10-08T06:17:18;4.43;;;1.50;;
39890;SDS011;25564;53.312;9.790;2023-10-08T06:20:06;4.30;;;1.37;;
39890;SDS011;25564;53.312;9.790;2023-10-08T06:22:48;10.03;;;1.80;;
39890;SDS011;25564;53.312;9.790;2023-10-08T06:25:19;3.57;;;1.53;;
39890;SDS011;25564;53.312;9.790;2023-10-08T06:27:54;4.80;;;1.33;;
39890;SDS011;25564;53.312;9.790;2023-10-08T06:30:29;2.50;;;1.30;;
39890;SDS011;25564;53.312;9.790;2023-10-08T06:33:01;3.37;;;1.37;;
39890;SDS011;25564;53.312;9.790;2023-10-08T06:35:32;7.47;;;1.90;;
39890;SDS011;25564;53.312;9.790;2023-10-08T06:38:04;5.57;;;1.80;;
39890;SDS011;25564;53.312;9.790;2023-10-08T06:40:38;3.60;;;1.50;;
39890;SDS011;25564;53.312;9.790;2023-10-08T06:43:10;5.87;;;1.60;;
39890;SDS011;25564;53.312;9.790;2023-10-08T06:45:55;8.07;;;1.63;;
39890;SDS011;25564;53.312;9.790;2023-10-08T06:48:29;9.87;;;1.70;;
39890;SDS011;25564;53.312;9.790;2023-10-08T06:51:01;7.37;;;1.17;;
39890;SDS011;25564;53.312;9.790;2023-10-08T06:53:42;7.17;;;1.90;;
39890;SDS011;25564;53.312;9.790;2023-10-08T06:56:17;4.37;;;1.53;;
39890;SDS011;25564;53.312;9.790;2023-10-08T06:58:51;7.72;;;2.08;;
39890;SDS011;25564;53.312;9.790;2023-10-08T07:01:26;10.80;;;4.10;;
39890;SDS011;25564;53.312;9.790;2023-10-08T07:04:00;7.63;;;2.67;;
39890;SDS011;25564;53.312;9.790;2023-10-08T07:06:38;13.83;;;5.60;;
39890;SDS011;25564;53.312;9.790;2023-10-08T07:09:14;5.43;;;2.00;;
39890;SDS011;25564;53.312;9.790;2023-10-08T07:12:00;5.65;;;1.50;;
39890;SDS011;25564;53.312;9.790;2023-10-08T07:14:37;7.17;;;2.00;;
39890;SDS011;25564;53.312;9.790;2023-10-08T07:17:09;5.23;;;1.70;;
39890;SDS011;25564;53.312;9.790;2023-10-08T07:19:43;3.93;;;1.90;;
39890;SDS011;25564;53.312;9.790;2023-10-08T07:22:18;16.90;;;6.93;;
39890;SDS011;25564;53.312;9.790;2023-10-08T07:24:53;6.40;;;2.00;;
39890;SDS011;25564;53.312;9.790;2023-10-08T07:27:25;6.33;;;1.83;;
39890;SDS011;25564;53.312;9.790;2023-10-08T07:30:03;4.67;;;1.77;;
39890;SDS011;25564;53.312;9.790;2023-10-08T07:32:41;7.50;;;1.77;;
39890;SDS011;25564;53.312;9.790;2023-10-08T07:35:13;7.13;;;1.80;;
39890;SDS011;25564;53.312;9.790;2023-10-08T07:37:56;5.00;;;1.83;;
39890;SDS011;25564;53.312;9.790;2023-10-08T07:40:28;4.37;;;1.80;;
39890;SDS011;25564;53.312;9.790;2023-10-08T07:43:01;4.10;;;1.57;;
39890;SDS011;25564;53.312;9.790;2023-10-08T07:45:40;5.90;;;1.47;;
39890;SDS011;25564;53.312;9.790;2023-10-08T07:48:16;2.50;;;1.33;;
39890;SDS011;25564;53.312;9.790;2023-10-08T07:50:48;2.17;;;1.07;;
39890;SDS011;25564;53.312;9.790;2023-10-08T07:53:22;5.43;;;2.10;;
39890;SDS011;25564;53.312;9.790;2023-10-08T07:55:55;4.60;;;1.70;;
39890;SDS011;25564;53.312;9.790;2023-10-08T07:58:27;7.27;;;1.40;;
39890;SDS011;25564;53.312;9.790;2023-10-08T08:01:02;6.63;;;2.27;;
39890;SDS011;25564;53.312;9.790;2023-10-08T08:03:40;8.87;;;2.80;;
39890;SDS011;25564;53.312;9.790;2023-10-08T08:06:17;6.70;;;1.77;;
39890;SDS011;25564;53.312;9.790;2023-10-08T08:08:48;5.10;;;1.33;;
39890;SDS011;25564;53.312;9.790;2023-10-08T08:11:19;7.30;;;1.33;;
39890;SDS011;25564;53.312;9.790;2023-10-08T08:13:57;4.03;;;0.90;;
39890;SDS011;25564;53.312;9.790;2023-10-08T08:16:28;5.70;;;1.23;;
39890;SDS011;25564;53.312;9.790;2023-10-08T08:19:00;3.90;;;1.50;;
39890;SDS011;25564;53.312;9.790;2023-10-08T08:21:31;6.60;;;1.27;;
39890;SDS011;25564;53.312;9.790;2023-10-08T08:24:03;4.60;;;1.43;;
39890;SDS011;25564;53.312;9.790;2023-10-08T08:26:37;5.33;;;0.90;;
39890;SDS011;25564;53.312;9.790;2023-10-08T08:29:32;8.33;;;1.17;;
39890;SDS011;25564;53.312;9.790;2023-10-08T08:32:15;3.83;;;1.33;;
39890;SDS011;25564;53.312;9.790;2023-10-08T08:34:47;4.10;;;1.23;;
39890;SDS011;25564;53.312;9.790;2023-10-08T08:37:21;4.03;;;1.77;;
39890;SDS011;25564;53.312;9.790;2023-10-08T08:39:53;3.40;;;0.90;;
39890;SDS011;25564;53.312;9.790;2023-10-08T08:42:28;7.23;;;0.87;;
39890;SDS011;25564;53.312;9.790;2023-10-08T08:45:06;5.73;;;0.90;;
39890;SDS011;25564;53.312;9.790;2023-10-08T08:47:42;1.23;;;0.75;;
39890;SDS011;25564;53.312;9.790;2023-10-08T08:50:14;4.13;;;0.90;;
39890;SDS011;25564;53.312;9.790;2023-10-08T08:52:46;14.83;;;2.20;;
39890;SDS011;25564;53.312;9.790;2023-10-08T08:55:17;3.53;;;1.00;;
39890;SDS011;25564;53.312;9.790;2023-10-08T08:57:50;3.53;;;1.03;;
39890;SDS011;25564;53.312;9.790;2023-10-08T09:00:24;1.70;;;0.87;;
39890;SDS011;25564;53.312;9.790;2023-10-08T09:03:01;3.93;;;0.80;;
39890;SDS011;25564;53.312;9.790;2023-10-08T09:05:36;8.02;;;1.08;;
39890;SDS011;25564;53.312;9.790;2023-10-08T09:08:12;4.07;;;1.40;;
39890;SDS011;25564;53.312;9.790;2023-10-08T09:10:43;2.87;;;0.80;;
39890;SDS011;25564;53.312;9.790;2023-10-08T09:13:24;1.63;;;0.73;;
39890;SDS011;25564;53.312;9.790;2023-10-08T09:15:57;2.60;;;0.73;;
39890;SDS011;25564;53.312;9.790;2023-10-08T09:18:35;8.90;;;1.17;;
39890;SDS011;25564;53.312;9.790;2023-10-08T09:21:10;3.40;;;1.00;;
39890;SDS011;25564;53.312;9.790;2023-10-08T09:26:16;3.77;;;0.70;;
39890;SDS011;25564;53.312;9.790;2023-10-08T09:28:49;4.50;;;0.60;;
39890;SDS011;25564;53.312;9.790;2023-10-08T09:31:22;6.47;;;0.90;;
39890;SDS011;25564;53.312;9.790;2023-10-08T09:33:55;2.27;;;1.27;;
39890;SDS011;25564;53.312;9.790;2023-10-08T09:36:27;4.37;;;0.90;;
39890;SDS011;25564;53.312;9.790;2023-10-08T09:39:03;8.43;;;1.23;;
39890;SDS011;25564;53.312;9.790;2023-10-08T09:41:37;3.37;;;0.80;;
39890;SDS011;25564;53.312;9.790;2023-10-08T09:44:10;6.07;;;1.15;;
39890;SDS011;25564;53.312;9.790;2023-10-08T09:46:43;5.60;;;1.20;;
39890;SDS011;25564;53.312;9.790;2023-10-08T09:49:19;6.80;;;1.00;;
39890;SDS011;25564;53.312;9.790;2023-10-08T09:52:01;4.37;;;1.00;;
39890;SDS011;25564;53.312;9.790;2023-10-08T09:54:43;3.83;;;0.90;;
39890;SDS011;25564;53.312;9.790;2023-10-08T09:57:20;5.28;;;1.00;;
39890;SDS011;25564;53.312;9.790;2023-10-08T09:59:55;3.30;;;0.80;;
39890;SDS011;25564;53.312;9.790;2023-10-08T10:02:29;5.85;;;1.40;;
39890;SDS011;25564;53.312;9.790;2023-10-08T10:05:03;4.40;;;0.80;;
39890;SDS011;25564;53.312;9.790;2023-10-08T10:07:37;3.90;;;0.95;;
39890;SDS011;25564;53.312;9.790;2023-10-08T10:10:24;3.03;;;0.50;;
39890;SDS011;25564;53.312;9.790;2023-10-08T10:13:06;3.58;;;0.63;;
39890;SDS011;25564;53.312;9.790;2023-10-08T10:15:41;2.10;;;0.60;;
39890;SDS011;25564;53.312;9.790;2023-10-08T10:21:01;4.07;;;0.63;;
39890;SDS011;25564;53.312;9.790;2023-10-08T10:24:04;1.33;;;0.68;;
39890;SDS011;25564;53.312;9.790;2023-10-08T10:27:08;3.33;;;0.60;;
39890;SDS011;25564;53.312;9.790;2023-10-08T10:29:42;3.17;;;0.70;;
39890;SDS011;25564;53.312;9.790;2023-10-08T10:32:15;4.28;;;1.15;;
39890;SDS011;25564;53.312;9.790;2023-10-08T10:34:47;2.13;;;0.95;;
39890;SDS011;25564;53.312;9.790;2023-10-08T10:37:18;3.50;;;1.02;;
39890;SDS011;25564;53.312;9.790;2023-10-08T10:39:53;4.25;;;0.80;;
39890;SDS011;25564;53.312;9.790;2023-10-08T10:42:27;1.27;;;0.40;;
39890;SDS011;25564;53.312;9.790;2023-10-08T10:44:59;2.47;;;0.70;;
39890;SDS011;25564;53.312;9.790;2023-10-08T10:47:44;3.20;;;0.70;;
39890;SDS011;25564;53.312;9.790;2023-10-08T10:50:17;2.83;;;1.35;;
39890;SDS011;25564;53.312;9.790;2023-10-08T10:53:02;6.20;;;1.33;;
39890;SDS011;25564;53.312;9.790;2023-10-08T10:55:42;3.38;;;0.70;;
39890;SDS011;25564;53.312;9.790;2023-10-08T10:58:31;5.43;;;1.48;;
39890;SDS011;25564;53.312;9.790;2023-10-08T11:01:09;3.67;;;0.70;;
39890;SDS011;25564;53.312;9.790;2023-10-08T11:04:04;3.28;;;0.70;;
39890;SDS011;25564;53.312;9.790;2023-10-08T11:06:37;7.57;;;1.15;;
39890;SDS011;25564;53.312;9.790;2023-10-08T11:09:09;3.63;;;0.95;;
39890;SDS011;25564;53.312;9.790;2023-10-08T11:11:46;6.13;;;0.88;;
39890;SDS011;25564;53.312;9.790;2023-10-08T11:14:25;2.80;;;0.80;;
39890;SDS011;25564;53.312;9.790;2023-10-08T11:16:57;1.20;;;0.60;;
39890;SDS011;25564;53.312;9.790;2023-10-08T11:19:28;10.35;;;1.27;;
39890;SDS011;25564;53.312;9.790;2023-10-08T11:22:03;1.48;;;0.60;;
39890;SDS011;25564;53.312;9.790;2023-10-08T11:24:37;1.63;;;0.82;;
39890;SDS011;25564;53.312;9.790;2023-10-08T11:27:14;3.55;;;0.90;;
39890;SDS011;25564;53.312;9.790;2023-10-08T11:29:48;4.93;;;0.95;;
39890;SDS011;25564;53.312;9.790;2023-10-08T11:32:27;2.97;;;1.45;;
39890;SDS011;25564;53.312;9.790;2023-10-08T11:35:00;5.78;;;1.50;;
39890;SDS011;25564;53.312;9.790;2023-10-08T11:37:32;5.13;;;1.50;;
39890;SDS011;25564;53.312;9.790;2023-10-08T11:40:07;6.03;;;2.90;;
39890;SDS011;25564;53.312;9.790;2023-10-08T11:42:48;3.50;;;1.50;;
39890;SDS011;25564;53.312;9.790;2023-10-08T11:45:22;4.20;;;1.40;;
39890;SDS011;25564;53.312;9.790;2023-10-08T11:48:09;6.25;;;2.22;;
39890;SDS011;25564;53.312;9.790;2023-10-08T11:50:44;2.42;;;0.80;;
39890;SDS011;25564;53.312;9.790;2023-10-08T11:53:15;1.75;;;0.85;;
39890;SDS011;25564;53.312;9.790;2023-10-08T11:55:47;2.47;;;0.80;;
39890;SDS011;25564;53.312;9.790;2023-10-08T11:58:19;5.05;;;1.88;;
39890;SDS011;25564;53.312;9.790;2023-10-08T12:00:51;7.38;;;1.27;;
39890;SDS011;25564;53.312;9.790;2023-10-08T12:03:24;6.85;;;2.92;;
39890;SDS011;25564;53.312;9.790;2023-10-08T12:05:58;4.05;;;1.23;;
39890;SDS011;25564;53.312;9.790;2023-10-08T12:08:31;4.85;;;1.00;;
39890;SDS011;25564;53.312;9.790;2023-10-08T12:11:10;3.40;;;1.17;;
39890;SDS011;25564;53.312;9.790;2023-10-08T12:13:45;2.47;;;0.68;;
39890;SDS011;25564;53.312;9.790;2023-10-08T12:16:16;4.25;;;1.20;;
39890;SDS011;25564;53.312;9.790;2023-10-08T12:18:52;4.65;;;0.90;;
39890;SDS011;25564;53.312;9.790;2023-10-08T12:21:28;3.30;;;0.93;;
39890;SDS011;25564;53.312;9.790;2023-10-08T12:24:03;2.10;;;0.73;;
39890;SDS011;25564;53.312;9.790;2023-10-08T12:26:36;3.05;;;0.80;;
39890;SDS011;25564;53.312;9.790;2023-10-08T12:29:08;2.35;;;0.80;;
39890;SDS011;25564;53.312;9.790;2023-10-08T12:31:41;2.47;;;0.52;;
39890;SDS011;25564;53.312;9.790;2023-10-08T12:34:12;4.32;;;1.30;;
39890;SDS011;25564;53.312;9.790;2023-10-08T12:36:43;3.30;;;0.70;;
39890;SDS011;25564;53.312;9.790;2023-10-08T12:39:17;2.25;;;0.98;;
39890;SDS011;25564;53.312;9.790;2023-10-08T12:41:48;3.05;;;0.95;;
39890;SDS011;25564;53.312;9.790;2023-10-08T12:44:21;4.47;;;1.35;;
39890;SDS011;25564;53.312;9.790;2023-10-08T12:46:54;1.90;;;0.93;;
39890;SDS011;25564;53.312;9.790;2023-10-08T12:49:27;4.75;;;1.10;;
39890;SDS011;25564;53.312;9.790;2023-10-08T12:52:05;1.65;;;0.90;;
39890;SDS011;25564;53.312;9.790;2023-10-08T12:54:36;2.15;;;0.70;;
39890;SDS011;25564;53.312;9.790;2023-10-08T12:57:16;3.78;;;0.68;;
39890;SDS011;25564;53.312;9.790;2023-10-08T12:59:50;4.20;;;0.70;;
39890;SDS011;25564;53.312;9.790;2023-10-08T13:02:23;4.05;;;1.27;;
39890;SDS011;25564;53.312;9.790;2023-10-08T13:07:31;3.25;;;1.40;;
39890;SDS011;25564;53.312;9.790;2023-10-08T13:10:09;2.05;;;0.70;;
39890;SDS011;25564;53.312;9.790;2023-10-08T13:12:45;4.35;;;0.98;;
39890;SDS011;25564;53.312;9.790;2023-10-08T13:15:17;5.53;;;1.15;;
39890;SDS011;25564;53.312;9.790;2023-10-08T13:17:48;1.98;;;1.05;;
39890;SDS011;25564;53.312;9.790;2023-10-08T13:20:20;5.20;;;1.83;;
39890;SDS011;25564;53.312;9.790;2023-10-08T13:22:52;4.47;;;1.02;;
39890;SDS011;25564;53.312;9.790;2023-10-08T13:25:23;1.80;;;0.60;;
39890;SDS011;25564;53.312;9.790;2023-10-08T13:27:57;4.93;;;0.77;;
39890;SDS011;25564;53.312;9.790;2023-10-08T13:30:28;1.52;;;0.60;;
39890;SDS011;25564;53.312;9.790;2023-10-08T13:32:59;3.10;;;0.88;;
39890;SDS011;25564;53.312;9.790;2023-10-08T13:35:31;5.05;;;0.70;;
39890;SDS011;25564;53.312;9.790;2023-10-08T13:38:04;3.53;;;0.52;;
39890;SDS011;25564;53.312;9.790;2023-10-08T13:40:41;2.30;;;1.00;;
39890;SDS011;25564;53.312;9.790;2023-10-08T13:43:15;6.57;;;1.00;;
39890;SDS011;25564;53.312;9.790;2023-10-08T13:45:48;4.45;;;1.60;;
39890;SDS011;25564;53.312;9.790;2023-10-08T13:48:19;3.25;;;1.00;;
39890;SDS011;25564;53.312;9.790;2023-10-08T13:50:52;3.25;;;1.00;;
39890;SDS011;25564;53.312;9.790;2023-10-08T13:53:24;3.08;;;0.77;;
39890;SDS011;25564;53.312;9.790;2023-10-08T13:55:59;2.45;;;0.68;;
39890;SDS011;25564;53.312;9.790;2023-10-08T13:58:35;3.17;;;0.77;;
39890;SDS011;25564;53.312;9.790;2023-10-08T14:01:14;3.97;;;1.25;;
39890;SDS011;25564;53.312;9.790;2023-10-08T14:03:52;1.00;;;0.63;;
39890;SDS011;25564;53.312;9.790;2023-10-08T14:06:25;8.48;;;0.93;;
39890;SDS011;25564;53.312;9.790;2023-10-08T14:08:57;4.28;;;1.10;;
39890;SDS011;25564;53.312;9.790;2023-10-08T14:11:28;2.22;;;0.47;;
39890;SDS011;25564;53.312;9.790;2023-10-08T14:14:01;2.92;;;0.90;;
39890;SDS011;25564;53.312;9.790;2023-10-08T14:16:39;2.78;;;0.70;;
39890;SDS011;25564;53.312;9.790;2023-10-08T14:19:13;4.32;;;0.98;;
39890;SDS011;25564;53.312;9.790;2023-10-08T14:21:45;1.50;;;0.70;;
39890;SDS011;25564;53.312;9.790;2023-10-08T14:24:31;1.17;;;0.70;;
39890;SDS011;25564;53.312;9.790;2023-10-08T14:27:06;3.78;;;1.20;;
39890;SDS011;25564;53.312;9.790;2023-10-08T14:29:41;1.45;;;0.93;;
39890;SDS011;25564;53.312;9.790;2023-10-08T14:32:15;3.63;;;0.90;;
39890;SDS011;25564;53.312;9.790;2023-10-08T14:34:47;2.55;;;1.00;;
39890;SDS011;25564;53.312;9.790;2023-10-08T14:37:19;3.33;;;0.98;;
39890;SDS011;25564;53.312;9.790;2023-10-08T14:40:09;5.07;;;1.00;;
39890;SDS011;25564;53.312;9.790;2023-10-08T14:42:59;4.15;;;1.10;;
39890;SDS011;25564;53.312;9.790;2023-10-08T14:45:35;2.28;;;1.00;;
39890;SDS011;25564;53.312;9.790;2023-10-08T14:48:07;4.53;;;1.00;;
39890;SDS011;25564;53.312;9.790;2023-10-08T14:50:43;4.50;;;1.17;;
39890;SDS011;25564;53.312;9.790;2023-10-08T14:53:14;7.13;;;3.28;;
39890;SDS011;25564;53.312;9.790;2023-10-08T14:55:46;3.22;;;1.58;;
39890;SDS011;25564;53.312;9.790;2023-10-08T14:58:18;4.35;;;1.30;;
39890;SDS011;25564;53.312;9.790;2023-10-08T15:00:50;2.40;;;1.23;;
39890;SDS011;25564;53.312;9.790;2023-10-08T15:03:23;1.40;;;0.70;;
39890;SDS011;25564;53.312;9.790;2023-10-08T15:05:55;5.18;;;1.20;;
39890;SDS011;25564;53.312;9.790;2023-10-08T15:08:27;4.63;;;1.15;;
39890;SDS011;25564;53.312;9.790;2023-10-08T15:10:58;1.88;;;0.73;;
39890;SDS011;25564;53.312;9.790;2023-10-08T15:13:31;2.40;;;0.70;;
39890;SDS011;25564;53.312;9.790;2023-10-08T15:16:04;3.25;;;0.85;;
39890;SDS011;25564;53.312;9.790;2023-10-08T15:18:36;3.20;;;1.08;;
39890;SDS011;25564;53.312;9.790;2023-10-08T15:21:14;3.25;;;0.82;;
39890;SDS011;25564;53.312;9.790;2023-10-08T15:23:46;3.25;;;1.25;;
39890;SDS011;25564;53.312;9.790;2023-10-08T15:26:18;3.85;;;1.02;;
39890;SDS011;25564;53.312;9.790;2023-10-08T15:28:49;3.90;;;0.82;;
39890;SDS011;25564;53.312;9.790;2023-10-08T15:31:21;2.10;;;0.85;;
39890;SDS011;25564;53.312;9.790;2023-10-08T15:33:52;1.67;;;0.60;;
39890;SDS011;25564;53.312;9.790;2023-10-08T15:36:25;2.75;;;1.17;;
39890;SDS011;25564;53.312;9.790;2023-10-08T15:38:58;1.17;;;0.88;;
39890;SDS011;25564;53.312;9.790;2023-10-08T15:41:30;2.58;;;1.02;;
39890;SDS011;25564;53.312;9.790;2023-10-08T15:44:01;2.75;;;0.90;;
39890;SDS011;25564;53.312;9.790;2023-10-08T15:46:33;4.72;;;0.90;;